Accueil
METAR-TAF:

METAR-TAF

Aéroports :

Aéroport d'Aurillac

Aurillac, France

latitude: 44-53N, longitude: 002-25E, altitude: 639 m

Observation

Le bulletin a été fait il y a 27 minutes, à 20:30 UTC
Vent 4 kt de est
Température 5°C
Humidité 87%
Pression 1014 hPa
Visibilité 10 km ou plus
pas de nuages en-dessous de 1500 mètres et pas de cumulonimbus.

METAR: LFLW 212030Z AUTO 10004KT CAVOK 05/03 Q1014

Heure: 21:57 (20:57 UTC)

Prévision

Le bulletin a été fait il y a 6 heures et 57 minutes, à 14:00 UTC
Prévision valable du 21 à 15 UTC au 21 à 24 UTC
Vent kt de nord
Visibilité 10 km ou plus
Ciel couvert à une hauteur de 3500 ft
Probabilité 30% :
Temporairement
du 21 à 20 UTC au 21 à 24 UTC
Visibilité: 4000 m
brume

TAF: LFLW 211400Z 2115/2124 00000KT 9999 OVC035 PROB30 TEMPO 2120/2124 4000 BR

Observations et prévisions météorologiques de plus de 4000 aéroports (messages METAR et TAF).

Les stations disponibles sont représentées par des disques jaunes et rouges sur la carte.

Passer la souris dessus pour voir le nom de la station.

Cliquer dessus pour voir les observations et prévisions météorologiques.

Pour changer de carte: cliquez sur les boutons verts avec une croix noire pour zoomer, sur le bouton vert avec un tiret pour effectuer un zoom arrière, ou sur les flèches vertes pour les cartes adjacentes.


METAR-TAF: